sensor_id;sensor_type;location;lat;lon;timestamp;P1;durP1;ratioP1;P2;durP2;ratioP2
10596;SDS011;5346;48.766;8.674;2022-12-18T00:02:19;33.83;;;16.37;;
10596;SDS011;5346;48.766;8.674;2022-12-18T00:04:48;31.33;;;15.47;;
10596;SDS011;5346;48.766;8.674;2022-12-18T00:07:22;35.33;;;16.13;;
10596;SDS011;5346;48.766;8.674;2022-12-18T00:09:49;38.73;;;16.87;;
10596;SDS011;5346;48.766;8.674;2022-12-18T00:12:17;31.97;;;15.67;;
10596;SDS011;5346;48.766;8.674;2022-12-18T00:14:51;30.27;;;15.80;;
10596;SDS011;5346;48.766;8.674;2022-12-18T00:17:24;32.27;;;16.83;;
10596;SDS011;5346;48.766;8.674;2022-12-18T00:20:06;34.63;;;15.77;;
10596;SDS011;5346;48.766;8.674;2022-12-18T00:22:34;32.13;;;15.60;;
10596;SDS011;5346;48.766;8.674;2022-12-18T00:25:01;31.40;;;15.20;;
10596;SDS011;5346;48.766;8.674;2022-12-18T00:27:36;29.80;;;15.30;;
10596;SDS011;5346;48.766;8.674;2022-12-18T00:30:03;35.70;;;15.47;;
10596;SDS011;5346;48.766;8.674;2022-12-18T00:32:32;32.33;;;15.40;;
10596;SDS011;5346;48.766;8.674;2022-12-18T00:35:06;30.50;;;14.77;;
10596;SDS011;5346;48.766;8.674;2022-12-18T00:37:34;31.33;;;15.33;;
10596;SDS011;5346;48.766;8.674;2022-12-18T00:40:02;29.90;;;14.87;;
10596;SDS011;5346;48.766;8.674;2022-12-18T00:42:37;37.57;;;15.40;;
10596;SDS011;5346;48.766;8.674;2022-12-18T00:45:26;32.57;;;14.63;;
10596;SDS011;5346;48.766;8.674;2022-12-18T00:48:03;29.37;;;14.10;;
10596;SDS011;5346;48.766;8.674;2022-12-18T00:50:31;30.10;;;14.73;;
10596;SDS011;5346;48.766;8.674;2022-12-18T00:52:59;27.93;;;14.70;;
10596;SDS011;5346;48.766;8.674;2022-12-18T00:55:33;27.60;;;14.80;;
10596;SDS011;5346;48.766;8.674;2022-12-18T00:58:00;28.60;;;15.07;;
10596;SDS011;5346;48.766;8.674;2022-12-18T01:00:27;28.27;;;14.50;;
10596;SDS011;5346;48.766;8.674;2022-12-18T01:03:02;32.60;;;14.83;;
10596;SDS011;5346;48.766;8.674;2022-12-18T01:05:30;29.37;;;14.47;;
10596;SDS011;5346;48.766;8.674;2022-12-18T01:07:58;28.50;;;15.30;;
10596;SDS011;5346;48.766;8.674;2022-12-18T01:10:33;30.23;;;15.50;;
10596;SDS011;5346;48.766;8.674;2022-12-18T01:13:00;29.43;;;16.00;;
10596;SDS011;5346;48.766;8.674;2022-12-18T01:15:27;29.70;;;14.53;;
10596;SDS011;5346;48.766;8.674;2022-12-18T01:18:08;32.20;;;15.03;;
10596;SDS011;5346;48.766;8.674;2022-12-18T01:20:50;32.80;;;14.40;;
10596;SDS011;5346;48.766;8.674;2022-12-18T01:23:27;28.00;;;13.83;;
10596;SDS011;5346;48.766;8.674;2022-12-18T01:25:54;28.50;;;13.93;;
10596;SDS011;5346;48.766;8.674;2022-12-18T01:28:21;27.63;;;14.07;;
10596;SDS011;5346;48.766;8.674;2022-12-18T01:30:56;27.53;;;14.37;;
10596;SDS011;5346;48.766;8.674;2022-12-18T01:33:23;30.93;;;14.47;;
10596;SDS011;5346;48.766;8.674;2022-12-18T01:35:50;28.20;;;13.83;;
10596;SDS011;5346;48.766;8.674;2022-12-18T01:38:25;28.27;;;14.43;;
10596;SDS011;5346;48.766;8.674;2022-12-18T01:40:59;27.07;;;14.17;;
10596;SDS011;5346;48.766;8.674;2022-12-18T01:44:46;32.47;;;15.03;;
10596;SDS011;5346;48.766;8.674;2022-12-18T01:46:50;29.07;;;15.27;;
10596;SDS011;5346;48.766;8.674;2022-12-18T01:49:23;28.50;;;15.07;;
10596;SDS011;5346;48.766;8.674;2022-12-18T01:51:52;27.27;;;13.27;;
10596;SDS011;5346;48.766;8.674;2022-12-18T01:54:20;26.17;;;14.80;;
10596;SDS011;5346;48.766;8.674;2022-12-18T01:56:54;27.73;;;14.30;;
10596;SDS011;5346;48.766;8.674;2022-12-18T01:59:21;26.67;;;14.13;;
10596;SDS011;5346;48.766;8.674;2022-12-18T02:01:48;27.93;;;13.97;;
10596;SDS011;5346;48.766;8.674;2022-12-18T02:04:24;27.53;;;13.70;;
10596;SDS011;5346;48.766;8.674;2022-12-18T02:07:01;25.13;;;13.00;;
10596;SDS011;5346;48.766;8.674;2022-12-18T02:09:46;24.67;;;12.27;;
10596;SDS011;5346;48.766;8.674;2022-12-18T02:12:19;25.20;;;13.87;;
10596;SDS011;5346;48.766;8.674;2022-12-18T02:14:58;26.87;;;13.53;;
10596;SDS011;5346;48.766;8.674;2022-12-18T02:17:31;26.93;;;12.77;;
10596;SDS011;5346;48.766;8.674;2022-12-18T02:20:29;25.93;;;13.60;;
10596;SDS011;5346;48.766;8.674;2022-12-18T02:23:06;25.63;;;12.63;;
10596;SDS011;5346;48.766;8.674;2022-12-18T02:26:07;31.27;;;13.50;;
10596;SDS011;5346;48.766;8.674;2022-12-18T02:28:46;24.80;;;13.37;;
10596;SDS011;5346;48.766;8.674;2022-12-18T02:31:30;23.93;;;11.97;;
10596;SDS011;5346;48.766;8.674;2022-12-18T02:34:03;25.00;;;13.30;;
10596;SDS011;5346;48.766;8.674;2022-12-18T02:36:39;23.07;;;11.83;;
10596;SDS011;5346;48.766;8.674;2022-12-18T02:39:10;21.10;;;11.77;;
10596;SDS011;5346;48.766;8.674;2022-12-18T02:41:46;24.20;;;12.37;;
10596;SDS011;5346;48.766;8.674;2022-12-18T02:44:14;24.17;;;12.60;;
10596;SDS011;5346;48.766;8.674;2022-12-18T02:46:51;25.47;;;12.83;;
10596;SDS011;5346;48.766;8.674;2022-12-18T02:52:42;25.67;;;12.10;;
10596;SDS011;5346;48.766;8.674;2022-12-18T03:04:40;27.67;;;12.03;;
10596;SDS011;5346;48.766;8.674;2022-12-18T03:07:23;19.40;;;10.97;;
10596;SDS011;5346;48.766;8.674;2022-12-18T03:10:01;21.80;;;11.53;;
10596;SDS011;5346;48.766;8.674;2022-12-18T03:12:37;24.80;;;12.23;;
10596;SDS011;5346;48.766;8.674;2022-12-18T03:15:14;26.00;;;12.43;;
10596;SDS011;5346;48.766;8.674;2022-12-18T03:17:56;26.67;;;12.50;;
10596;SDS011;5346;48.766;8.674;2022-12-18T03:20:37;21.40;;;11.37;;
10596;SDS011;5346;48.766;8.674;2022-12-18T03:23:17;20.37;;;11.13;;
10596;SDS011;5346;48.766;8.674;2022-12-18T03:25:52;20.17;;;11.40;;
10596;SDS011;5346;48.766;8.674;2022-12-18T03:28:33;21.03;;;11.03;;
10596;SDS011;5346;48.766;8.674;2022-12-18T03:31:04;23.03;;;11.30;;
10596;SDS011;5346;48.766;8.674;2022-12-18T03:36:17;20.83;;;11.30;;
10596;SDS011;5346;48.766;8.674;2022-12-18T03:38:51;21.57;;;12.03;;
10596;SDS011;5346;48.766;8.674;2022-12-18T03:41:39;25.97;;;12.53;;
10596;SDS011;5346;48.766;8.674;2022-12-18T03:44:29;21.83;;;10.97;;
10596;SDS011;5346;48.766;8.674;2022-12-18T03:52:57;22.50;;;11.90;;
10596;SDS011;5346;48.766;8.674;2022-12-18T03:55:40;20.03;;;11.20;;
10596;SDS011;5346;48.766;8.674;2022-12-18T03:58:09;19.73;;;11.20;;
10596;SDS011;5346;48.766;8.674;2022-12-18T04:00:47;23.67;;;11.80;;
10596;SDS011;5346;48.766;8.674;2022-12-18T04:03:16;20.60;;;11.37;;
10596;SDS011;5346;48.766;8.674;2022-12-18T04:05:51;21.20;;;11.30;;
10596;SDS011;5346;48.766;8.674;2022-12-18T04:08:27;20.27;;;11.07;;
10596;SDS011;5346;48.766;8.674;2022-12-18T04:10:55;20.87;;;11.27;;
10596;SDS011;5346;48.766;8.674;2022-12-18T04:13:30;23.47;;;12.03;;
10596;SDS011;5346;48.766;8.674;2022-12-18T04:16:08;25.00;;;12.07;;
10596;SDS011;5346;48.766;8.674;2022-12-18T04:18:43;19.70;;;11.30;;
10596;SDS011;5346;48.766;8.674;2022-12-18T04:21:17;23.17;;;12.00;;
10596;SDS011;5346;48.766;8.674;2022-12-18T04:23:44;23.10;;;12.10;;
10596;SDS011;5346;48.766;8.674;2022-12-18T04:26:11;27.97;;;11.80;;
10596;SDS011;5346;48.766;8.674;2022-12-18T04:28:46;21.40;;;11.70;;
10596;SDS011;5346;48.766;8.674;2022-12-18T04:31:13;20.73;;;11.53;;
10596;SDS011;5346;48.766;8.674;2022-12-18T04:33:40;21.87;;;11.83;;
10596;SDS011;5346;48.766;8.674;2022-12-18T04:36:15;20.80;;;11.70;;
10596;SDS011;5346;48.766;8.674;2022-12-18T04:38:42;21.47;;;11.73;;
10596;SDS011;5346;48.766;8.674;2022-12-18T04:41:09;26.77;;;13.13;;
10596;SDS011;5346;48.766;8.674;2022-12-18T04:43:44;22.23;;;11.03;;
10596;SDS011;5346;48.766;8.674;2022-12-18T04:46:11;23.17;;;11.27;;
10596;SDS011;5346;48.766;8.674;2022-12-18T04:48:38;26.43;;;12.70;;
10596;SDS011;5346;48.766;8.674;2022-12-18T04:51:13;26.60;;;13.30;;
10596;SDS011;5346;48.766;8.674;2022-12-18T04:53:40;26.37;;;13.13;;
10596;SDS011;5346;48.766;8.674;2022-12-18T04:56:09;22.87;;;12.23;;
10596;SDS011;5346;48.766;8.674;2022-12-18T04:58:45;22.90;;;12.43;;
10596;SDS011;5346;48.766;8.674;2022-12-18T05:01:13;23.40;;;12.10;;
10596;SDS011;5346;48.766;8.674;2022-12-18T05:03:41;24.87;;;12.80;;
10596;SDS011;5346;48.766;8.674;2022-12-18T05:06:16;23.47;;;12.70;;
10596;SDS011;5346;48.766;8.674;2022-12-18T05:08:43;23.97;;;13.00;;
10596;SDS011;5346;48.766;8.674;2022-12-18T05:11:12;25.63;;;13.17;;
10596;SDS011;5346;48.766;8.674;2022-12-18T05:13:51;23.93;;;12.80;;
10596;SDS011;5346;48.766;8.674;2022-12-18T05:16:18;24.73;;;12.60;;
10596;SDS011;5346;48.766;8.674;2022-12-18T05:18:45;25.30;;;13.43;;
10596;SDS011;5346;48.766;8.674;2022-12-18T05:21:20;25.10;;;12.90;;
10596;SDS011;5346;48.766;8.674;2022-12-18T05:23:54;22.63;;;11.30;;
10596;SDS011;5346;48.766;8.674;2022-12-18T05:26:28;23.63;;;12.47;;
10596;SDS011;5346;48.766;8.674;2022-12-18T05:28:55;26.67;;;13.17;;
10596;SDS011;5346;48.766;8.674;2022-12-18T05:31:23;24.83;;;13.23;;
10596;SDS011;5346;48.766;8.674;2022-12-18T05:34:04;26.60;;;12.73;;
10596;SDS011;5346;48.766;8.674;2022-12-18T05:36:32;28.67;;;13.47;;
10596;SDS011;5346;48.766;8.674;2022-12-18T05:39:06;27.17;;;13.30;;
10596;SDS011;5346;48.766;8.674;2022-12-18T05:41:33;25.97;;;12.90;;
10596;SDS011;5346;48.766;8.674;2022-12-18T05:44:00;27.93;;;13.30;;
10596;SDS011;5346;48.766;8.674;2022-12-18T05:46:35;30.93;;;13.50;;
10596;SDS011;5346;48.766;8.674;2022-12-18T05:49:03;26.30;;;13.13;;
10596;SDS011;5346;48.766;8.674;2022-12-18T05:51:30;30.87;;;14.27;;
10596;SDS011;5346;48.766;8.674;2022-12-18T05:54:06;25.00;;;12.40;;
10596;SDS011;5346;48.766;8.674;2022-12-18T05:56:34;32.60;;;12.77;;
10596;SDS011;5346;48.766;8.674;2022-12-18T05:59:01;34.60;;;14.60;;
10596;SDS011;5346;48.766;8.674;2022-12-18T06:01:35;30.80;;;14.23;;
10596;SDS011;5346;48.766;8.674;2022-12-18T06:04:04;28.20;;;14.13;;
10596;SDS011;5346;48.766;8.674;2022-12-18T06:06:31;31.03;;;13.50;;
10596;SDS011;5346;48.766;8.674;2022-12-18T06:09:06;28.97;;;13.57;;
10596;SDS011;5346;48.766;8.674;2022-12-18T06:11:36;28.10;;;13.80;;
10596;SDS011;5346;48.766;8.674;2022-12-18T06:14:04;28.73;;;14.10;;
10596;SDS011;5346;48.766;8.674;2022-12-18T06:16:39;29.00;;;13.30;;
10596;SDS011;5346;48.766;8.674;2022-12-18T06:19:41;30.07;;;13.37;;
10596;SDS011;5346;48.766;8.674;2022-12-18T06:22:23;28.57;;;12.73;;
10596;SDS011;5346;48.766;8.674;2022-12-18T06:24:51;25.37;;;11.37;;
10596;SDS011;5346;48.766;8.674;2022-12-18T06:27:18;29.63;;;13.50;;
10596;SDS011;5346;48.766;8.674;2022-12-18T06:29:53;29.77;;;13.00;;
10596;SDS011;5346;48.766;8.674;2022-12-18T06:32:20;30.73;;;14.03;;
10596;SDS011;5346;48.766;8.674;2022-12-18T06:34:48;36.60;;;14.33;;
10596;SDS011;5346;48.766;8.674;2022-12-18T06:37:22;30.10;;;13.50;;
10596;SDS011;5346;48.766;8.674;2022-12-18T06:39:53;29.00;;;13.53;;
10596;SDS011;5346;48.766;8.674;2022-12-18T06:42:34;28.37;;;14.03;;
10596;SDS011;5346;48.766;8.674;2022-12-18T06:45:02;33.20;;;14.27;;
10596;SDS011;5346;48.766;8.674;2022-12-18T06:47:31;28.00;;;12.77;;
10596;SDS011;5346;48.766;8.674;2022-12-18T06:50:05;33.07;;;14.00;;
10596;SDS011;5346;48.766;8.674;2022-12-18T06:52:33;31.77;;;13.83;;
10596;SDS011;5346;48.766;8.674;2022-12-18T06:55:01;32.83;;;14.93;;
10596;SDS011;5346;48.766;8.674;2022-12-18T06:57:36;33.10;;;15.10;;
10596;SDS011;5346;48.766;8.674;2022-12-18T07:00:06;34.77;;;14.23;;
10596;SDS011;5346;48.766;8.674;2022-12-18T07:02:34;28.87;;;13.87;;
10596;SDS011;5346;48.766;8.674;2022-12-18T07:05:10;33.63;;;14.80;;
10596;SDS011;5346;48.766;8.674;2022-12-18T07:07:38;35.00;;;16.07;;
10596;SDS011;5346;48.766;8.674;2022-12-18T07:10:05;35.93;;;15.40;;
10596;SDS011;5346;48.766;8.674;2022-12-18T07:12:41;37.57;;;16.00;;
10596;SDS011;5346;48.766;8.674;2022-12-18T07:15:09;35.77;;;13.47;;
10596;SDS011;5346;48.766;8.674;2022-12-18T07:17:36;36.80;;;15.70;;
10596;SDS011;5346;48.766;8.674;2022-12-18T07:20:17;35.87;;;14.73;;
10596;SDS011;5346;48.766;8.674;2022-12-18T07:22:45;38.60;;;16.27;;
10596;SDS011;5346;48.766;8.674;2022-12-18T07:25:21;36.50;;;17.30;;
10596;SDS011;5346;48.766;8.674;2022-12-18T07:27:49;42.33;;;16.50;;
10596;SDS011;5346;48.766;8.674;2022-12-18T07:30:17;35.53;;;14.87;;
10596;SDS011;5346;48.766;8.674;2022-12-18T07:32:51;36.70;;;15.50;;
10596;SDS011;5346;48.766;8.674;2022-12-18T07:35:19;40.53;;;16.63;;
10596;SDS011;5346;48.766;8.674;2022-12-18T07:37:50;37.00;;;15.53;;
10596;SDS011;5346;48.766;8.674;2022-12-18T07:40:25;41.20;;;16.67;;
10596;SDS011;5346;48.766;8.674;2022-12-18T07:42:53;34.87;;;16.73;;
10596;SDS011;5346;48.766;8.674;2022-12-18T07:45:20;38.03;;;17.37;;
10596;SDS011;5346;48.766;8.674;2022-12-18T07:47:55;42.37;;;16.43;;
10596;SDS011;5346;48.766;8.674;2022-12-18T07:50:23;42.60;;;17.60;;
10596;SDS011;5346;48.766;8.674;2022-12-18T07:52:50;42.47;;;17.57;;
10596;SDS011;5346;48.766;8.674;2022-12-18T07:55:25;42.97;;;17.67;;
10596;SDS011;5346;48.766;8.674;2022-12-18T07:57:52;40.73;;;16.37;;
10596;SDS011;5346;48.766;8.674;2022-12-18T08:00:26;41.27;;;16.23;;
10596;SDS011;5346;48.766;8.674;2022-12-18T08:03:00;38.53;;;16.30;;
10596;SDS011;5346;48.766;8.674;2022-12-18T08:05:28;38.53;;;17.90;;
10596;SDS011;5346;48.766;8.674;2022-12-18T08:07:55;37.13;;;17.10;;
10596;SDS011;5346;48.766;8.674;2022-12-18T08:10:31;44.00;;;17.50;;
10596;SDS011;5346;48.766;8.674;2022-12-18T08:12:58;42.73;;;18.63;;
10596;SDS011;5346;48.766;8.674;2022-12-18T08:15:30;40.07;;;18.53;;
10596;SDS011;5346;48.766;8.674;2022-12-18T08:18:04;40.97;;;17.47;;
10596;SDS011;5346;48.766;8.674;2022-12-18T08:20:46;39.53;;;17.53;;
10596;SDS011;5346;48.766;8.674;2022-12-18T08:23:21;39.40;;;17.37;;
10596;SDS011;5346;48.766;8.674;2022-12-18T08:25:53;39.00;;;16.53;;
10596;SDS011;5346;48.766;8.674;2022-12-18T08:28:28;34.03;;;17.00;;
10596;SDS011;5346;48.766;8.674;2022-12-18T08:30:56;40.47;;;18.03;;
10596;SDS011;5346;48.766;8.674;2022-12-18T08:33:24;37.50;;;16.87;;
10596;SDS011;5346;48.766;8.674;2022-12-18T08:35:59;38.07;;;15.47;;
10596;SDS011;5346;48.766;8.674;2022-12-18T08:38:28;36.97;;;16.37;;
10596;SDS011;5346;48.766;8.674;2022-12-18T08:40:59;37.63;;;16.67;;
10596;SDS011;5346;48.766;8.674;2022-12-18T08:43:38;38.73;;;18.50;;
10596;SDS011;5346;48.766;8.674;2022-12-18T08:46:26;41.33;;;17.93;;
10596;SDS011;5346;48.766;8.674;2022-12-18T08:49:04;41.07;;;20.10;;
10596;SDS011;5346;48.766;8.674;2022-12-18T08:51:33;37.53;;;17.87;;
10596;SDS011;5346;48.766;8.674;2022-12-18T08:54:02;37.37;;;16.63;;
10596;SDS011;5346;48.766;8.674;2022-12-18T08:56:37;36.23;;;17.80;;
10596;SDS011;5346;48.766;8.674;2022-12-18T08:59:04;35.60;;;17.57;;
10596;SDS011;5346;48.766;8.674;2022-12-18T09:01:32;35.83;;;17.90;;
10596;SDS011;5346;48.766;8.674;2022-12-18T09:04:07;34.47;;;17.63;;
10596;SDS011;5346;48.766;8.674;2022-12-18T09:06:38;36.17;;;17.93;;
10596;SDS011;5346;48.766;8.674;2022-12-18T09:09:05;34.03;;;17.10;;
10596;SDS011;5346;48.766;8.674;2022-12-18T09:11:40;35.97;;;17.83;;
10596;SDS011;5346;48.766;8.674;2022-12-18T09:14:08;38.07;;;19.20;;
10596;SDS011;5346;48.766;8.674;2022-12-18T09:16:36;36.53;;;18.90;;
10596;SDS011;5346;48.766;8.674;2022-12-18T09:19:10;36.97;;;17.90;;
10596;SDS011;5346;48.766;8.674;2022-12-18T09:21:50;40.97;;;21.30;;
10596;SDS011;5346;48.766;8.674;2022-12-18T09:24:25;38.50;;;18.77;;
10596;SDS011;5346;48.766;8.674;2022-12-18T09:26:53;34.77;;;17.73;;
10596;SDS011;5346;48.766;8.674;2022-12-18T09:29:23;39.00;;;19.60;;
10596;SDS011;5346;48.766;8.674;2022-12-18T09:31:57;38.80;;;18.57;;
10596;SDS011;5346;48.766;8.674;2022-12-18T09:34:24;40.10;;;19.83;;
10596;SDS011;5346;48.766;8.674;2022-12-18T09:36:52;41.97;;;20.00;;
10596;SDS011;5346;48.766;8.674;2022-12-18T09:39:26;34.73;;;19.30;;
10596;SDS011;5346;48.766;8.674;2022-12-18T09:41:54;41.90;;;19.90;;
10596;SDS011;5346;48.766;8.674;2022-12-18T09:44:34;43.47;;;21.20;;
10596;SDS011;5346;48.766;8.674;2022-12-18T09:47:20;41.33;;;20.77;;
10596;SDS011;5346;48.766;8.674;2022-12-18T09:49:53;44.40;;;21.10;;
10596;SDS011;5346;48.766;8.674;2022-12-18T09:52:35;40.53;;;20.43;;
10596;SDS011;5346;48.766;8.674;2022-12-18T09:55:11;42.77;;;20.70;;
10596;SDS011;5346;48.766;8.674;2022-12-18T10:00:43;41.40;;;19.33;;
10596;SDS011;5346;48.766;8.674;2022-12-18T10:03:17;43.57;;;21.37;;
10596;SDS011;5346;48.766;8.674;2022-12-18T10:15:01;40.10;;;20.80;;
10596;SDS011;5346;48.766;8.674;2022-12-18T10:18:23;45.10;;;21.50;;
10596;SDS011;5346;48.766;8.674;2022-12-18T10:21:04;39.10;;;19.20;;
10596;SDS011;5346;48.766;8.674;2022-12-18T10:23:54;37.90;;;18.37;;
10596;SDS011;5346;48.766;8.674;2022-12-18T10:26:46;38.07;;;19.70;;
10596;SDS011;5346;48.766;8.674;2022-12-18T10:29:15;40.37;;;21.33;;
10596;SDS011;5346;48.766;8.674;2022-12-18T10:31:43;37.17;;;20.00;;
10596;SDS011;5346;48.766;8.674;2022-12-18T10:34:17;36.13;;;19.10;;
10596;SDS011;5346;48.766;8.674;2022-12-18T10:36:44;37.87;;;19.23;;
10596;SDS011;5346;48.766;8.674;2022-12-18T10:39:14;41.50;;;20.57;;
10596;SDS011;5346;48.766;8.674;2022-12-18T10:41:49;38.10;;;20.57;;
10596;SDS011;5346;48.766;8.674;2022-12-18T10:44:23;33.63;;;19.57;;
10596;SDS011;5346;48.766;8.674;2022-12-18T10:47:17;35.80;;;20.13;;
10596;SDS011;5346;48.766;8.674;2022-12-18T10:49:49;37.43;;;20.60;;
10596;SDS011;5346;48.766;8.674;2022-12-18T10:52:25;36.87;;;20.53;;
10596;SDS011;5346;48.766;8.674;2022-12-18T10:54:58;36.97;;;20.97;;
10596;SDS011;5346;48.766;8.674;2022-12-18T10:57:35;36.60;;;21.03;;
10596;SDS011;5346;48.766;8.674;2022-12-18T11:00:21;38.17;;;20.17;;
10596;SDS011;5346;48.766;8.674;2022-12-18T11:03:00;37.00;;;20.67;;
10596;SDS011;5346;48.766;8.674;2022-12-18T11:07:57;38.97;;;21.33;;
10596;SDS011;5346;48.766;8.674;2022-12-18T11:10:35;41.00;;;22.27;;
10596;SDS011;5346;48.766;8.674;2022-12-18T11:13:19;43.57;;;22.37;;
10596;SDS011;5346;48.766;8.674;2022-12-18T11:15:56;44.57;;;21.83;;
10596;SDS011;5346;48.766;8.674;2022-12-18T11:18:34;41.13;;;21.50;;
10596;SDS011;5346;48.766;8.674;2022-12-18T11:21:15;35.77;;;18.93;;
10596;SDS011;5346;48.766;8.674;2022-12-18T11:23:52;41.63;;;20.67;;
10596;SDS011;5346;48.766;8.674;2022-12-18T11:26:33;43.20;;;21.87;;
10596;SDS011;5346;48.766;8.674;2022-12-18T11:29:09;42.73;;;22.87;;
10596;SDS011;5346;48.766;8.674;2022-12-18T11:31:50;43.97;;;22.40;;
10596;SDS011;5346;48.766;8.674;2022-12-18T11:34:27;42.23;;;22.57;;
10596;SDS011;5346;48.766;8.674;2022-12-18T11:37:05;39.97;;;20.97;;
10596;SDS011;5346;48.766;8.674;2022-12-18T11:39:40;42.67;;;21.83;;
10596;SDS011;5346;48.766;8.674;2022-12-18T11:42:41;44.83;;;21.53;;
10596;SDS011;5346;48.766;8.674;2022-12-18T11:45:31;39.17;;;20.67;;
10596;SDS011;5346;48.766;8.674;2022-12-18T11:48:14;37.20;;;20.80;;
10596;SDS011;5346;48.766;8.674;2022-12-18T11:50:56;39.43;;;21.53;;
10596;SDS011;5346;48.766;8.674;2022-12-18T11:53:32;39.83;;;19.80;;
10596;SDS011;5346;48.766;8.674;2022-12-18T11:56:11;40.03;;;20.20;;
10596;SDS011;5346;48.766;8.674;2022-12-18T11:59:18;37.83;;;20.73;;
10596;SDS011;5346;48.766;8.674;2022-12-18T12:01:54;37.73;;;21.40;;
10596;SDS011;5346;48.766;8.674;2022-12-18T12:10:29;36.13;;;20.77;;
10596;SDS011;5346;48.766;8.674;2022-12-18T12:16:22;37.33;;;20.83;;
10596;SDS011;5346;48.766;8.674;2022-12-18T12:30:45;41.67;;;21.40;;
10596;SDS011;5346;48.766;8.674;2022-12-18T12:36:47;37.53;;;20.20;;
10596;SDS011;5346;48.766;8.674;2022-12-18T12:39:44;38.37;;;20.70;;
10596;SDS011;5346;48.766;8.674;2022-12-18T12:45:54;37.63;;;19.63;;
10596;SDS011;5346;48.766;8.674;2022-12-18T12:51:43;37.13;;;20.63;;
10596;SDS011;5346;48.766;8.674;2022-12-18T12:54:15;42.87;;;22.77;;
10596;SDS011;5346;48.766;8.674;2022-12-18T12:56:57;36.93;;;20.93;;
10596;SDS011;5346;48.766;8.674;2022-12-18T12:59:46;40.20;;;21.27;;
10596;SDS011;5346;48.766;8.674;2022-12-18T13:11:00;42.63;;;22.30;;
10596;SDS011;5346;48.766;8.674;2022-12-18T13:13:55;40.73;;;20.83;;
10596;SDS011;5346;48.766;8.674;2022-12-18T13:16:24;41.83;;;22.50;;
10596;SDS011;5346;48.766;8.674;2022-12-18T13:18:54;43.03;;;23.47;;
10596;SDS011;5346;48.766;8.674;2022-12-18T13:21:37;42.10;;;22.07;;
10596;SDS011;5346;48.766;8.674;2022-12-18T13:27:00;46.43;;;22.80;;
10596;SDS011;5346;48.766;8.674;2022-12-18T13:29:48;46.50;;;23.53;;
10596;SDS011;5346;48.766;8.674;2022-12-18T13:32:24;47.80;;;23.53;;
10596;SDS011;5346;48.766;8.674;2022-12-18T13:37:55;44.13;;;23.00;;
10596;SDS011;5346;48.766;8.674;2022-12-18T13:43:55;46.43;;;23.87;;
10596;SDS011;5346;48.766;8.674;2022-12-18T13:46:19;53.53;;;24.30;;
10596;SDS011;5346;48.766;8.674;2022-12-18T13:49:03;52.40;;;24.03;;
10596;SDS011;5346;48.766;8.674;2022-12-18T13:51:48;50.87;;;24.13;;
10596;SDS011;5346;48.766;8.674;2022-12-18T13:56:58;47.63;;;23.07;;
10596;SDS011;5346;48.766;8.674;2022-12-18T13:59:36;45.13;;;23.53;;
10596;SDS011;5346;48.766;8.674;2022-12-18T14:02:15;49.60;;;24.33;;
10596;SDS011;5346;48.766;8.674;2022-12-18T14:04:51;49.53;;;24.70;;
10596;SDS011;5346;48.766;8.674;2022-12-18T14:07:20;48.13;;;22.93;;
10596;SDS011;5346;48.766;8.674;2022-12-18T14:10:11;49.57;;;23.10;;
10596;SDS011;5346;48.766;8.674;2022-12-18T14:13:06;49.73;;;23.90;;
10596;SDS011;5346;48.766;8.674;2022-12-18T14:15:43;51.83;;;26.47;;
10596;SDS011;5346;48.766;8.674;2022-12-18T14:20:54;55.33;;;25.60;;
10596;SDS011;5346;48.766;8.674;2022-12-18T14:23:40;56.63;;;25.80;;
10596;SDS011;5346;48.766;8.674;2022-12-18T14:26:49;58.03;;;25.00;;
10596;SDS011;5346;48.766;8.674;2022-12-18T14:32:07;51.80;;;25.20;;
10596;SDS011;5346;48.766;8.674;2022-12-18T14:34:53;54.93;;;25.00;;
10596;SDS011;5346;48.766;8.674;2022-12-18T14:37:28;55.63;;;24.40;;
10596;SDS011;5346;48.766;8.674;2022-12-18T14:39:56;57.33;;;26.33;;
10596;SDS011;5346;48.766;8.674;2022-12-18T14:42:32;58.57;;;26.43;;
10596;SDS011;5346;48.766;8.674;2022-12-18T14:48:18;57.00;;;26.73;;
10596;SDS011;5346;48.766;8.674;2022-12-18T14:51:12;61.77;;;28.23;;
10596;SDS011;5346;48.766;8.674;2022-12-18T14:53:53;58.50;;;26.20;;
10596;SDS011;5346;48.766;8.674;2022-12-18T14:56:31;55.87;;;26.57;;
10596;SDS011;5346;48.766;8.674;2022-12-18T14:59:19;60.50;;;26.67;;
10596;SDS011;5346;48.766;8.674;2022-12-18T15:04:38;65.33;;;28.57;;
10596;SDS011;5346;48.766;8.674;2022-12-18T15:09:59;66.43;;;27.73;;
10596;SDS011;5346;48.766;8.674;2022-12-18T15:12:39;62.10;;;26.90;;
10596;SDS011;5346;48.766;8.674;2022-12-18T15:23:45;67.53;;;27.83;;
10596;SDS011;5346;48.766;8.674;2022-12-18T15:26:15;69.00;;;28.53;;
10596;SDS011;5346;48.766;8.674;2022-12-18T15:31:31;67.97;;;29.53;;
10596;SDS011;5346;48.766;8.674;2022-12-18T15:36:38;67.07;;;28.73;;
10596;SDS011;5346;48.766;8.674;2022-12-18T15:39:06;60.90;;;27.93;;
10596;SDS011;5346;48.766;8.674;2022-12-18T15:41:45;70.73;;;28.77;;
10596;SDS011;5346;48.766;8.674;2022-12-18T15:44:31;65.97;;;27.07;;
10596;SDS011;5346;48.766;8.674;2022-12-18T15:47:08;68.37;;;28.07;;
10596;SDS011;5346;48.766;8.674;2022-12-18T15:49:38;69.80;;;29.23;;
10596;SDS011;5346;48.766;8.674;2022-12-18T15:52:12;68.83;;;29.13;;
10596;SDS011;5346;48.766;8.674;2022-12-18T15:54:52;74.90;;;28.53;;
10596;SDS011;5346;48.766;8.674;2022-12-18T15:57:45;74.83;;;29.77;;
10596;SDS011;5346;48.766;8.674;2022-12-18T16:00:13;70.47;;;28.20;;
10596;SDS011;5346;48.766;8.674;2022-12-18T16:02:40;68.10;;;29.97;;
10596;SDS011;5346;48.766;8.674;2022-12-18T16:05:16;77.20;;;30.60;;
10596;SDS011;5346;48.766;8.674;2022-12-18T16:07:44;73.73;;;28.90;;
10596;SDS011;5346;48.766;8.674;2022-12-18T16:10:12;71.90;;;28.87;;
10596;SDS011;5346;48.766;8.674;2022-12-18T16:12:47;67.57;;;30.97;;
10596;SDS011;5346;48.766;8.674;2022-12-18T16:15:15;74.13;;;30.37;;
10596;SDS011;5346;48.766;8.674;2022-12-18T16:17:49;73.87;;;30.40;;
10596;SDS011;5346;48.766;8.674;2022-12-18T16:20:24;74.47;;;30.97;;
10596;SDS011;5346;48.766;8.674;2022-12-18T16:22:58;70.53;;;30.17;;
10596;SDS011;5346;48.766;8.674;2022-12-18T16:25:32;71.97;;;30.30;;
10596;SDS011;5346;48.766;8.674;2022-12-18T16:28:00;80.43;;;31.30;;
10596;SDS011;5346;48.766;8.674;2022-12-18T16:30:28;70.23;;;29.37;;
10596;SDS011;5346;48.766;8.674;2022-12-18T16:33:04;70.30;;;28.50;;
10596;SDS011;5346;48.766;8.674;2022-12-18T16:35:33;61.33;;;27.27;;
10596;SDS011;5346;48.766;8.674;2022-12-18T16:38:03;64.90;;;27.93;;
10596;SDS011;5346;48.766;8.674;2022-12-18T16:40:37;62.23;;;27.77;;
10596;SDS011;5346;48.766;8.674;2022-12-18T16:43:24;62.43;;;26.60;;
10596;SDS011;5346;48.766;8.674;2022-12-18T16:45:59;59.47;;;26.13;;
10596;SDS011;5346;48.766;8.674;2022-12-18T16:48:26;60.13;;;26.00;;
10596;SDS011;5346;48.766;8.674;2022-12-18T16:50:59;63.57;;;26.67;;
10596;SDS011;5346;48.766;8.674;2022-12-18T16:53:35;56.53;;;25.23;;
10596;SDS011;5346;48.766;8.674;2022-12-18T16:56:02;49.57;;;23.87;;
10596;SDS011;5346;48.766;8.674;2022-12-18T16:58:31;51.60;;;23.17;;
10596;SDS011;5346;48.766;8.674;2022-12-18T17:01:08;52.70;;;24.63;;
10596;SDS011;5346;48.766;8.674;2022-12-18T17:03:36;53.77;;;23.03;;
10596;SDS011;5346;48.766;8.674;2022-12-18T17:06:04;61.40;;;24.33;;
10596;SDS011;5346;48.766;8.674;2022-12-18T17:08:39;48.93;;;22.13;;
10596;SDS011;5346;48.766;8.674;2022-12-18T17:11:06;44.77;;;21.77;;
10596;SDS011;5346;48.766;8.674;2022-12-18T17:13:34;45.27;;;20.63;;